createdAt,value
2019-01-11T00:00:30.949Z,20.00
2019-01-11T00:01:30.946Z,20.00
2019-01-11T00:02:30.932Z,20.00
2019-01-11T00:03:30.959Z,20.00
2019-01-11T00:04:30.911Z,20.00
2019-01-11T00:05:30.896Z,20.00
2019-01-11T00:06:30.898Z,20.00
2019-01-11T00:07:30.878Z,20.00
2019-01-11T00:08:30.864Z,20.00
2019-01-11T00:09:30.891Z,20.00
2019-01-11T00:10:30.843Z,20.00
2019-01-11T00:11:30.836Z,20.00
2019-01-11T00:12:30.826Z,20.00
2019-01-11T00:13:30.809Z,20.00
2019-01-11T00:14:30.797Z,20.00
2019-01-11T00:15:30.834Z,20.00
2019-01-11T00:16:30.778Z,20.00
2019-01-11T00:17:30.778Z,20.00
2019-01-11T00:18:30.777Z,20.00
2019-01-11T00:19:30.744Z,24.00
2019-01-11T00:20:30.741Z,20.00
2019-01-11T00:21:30.761Z,20.00
2019-01-11T00:22:30.711Z,20.00
2019-01-11T00:23:30.703Z,20.00
2019-01-11T00:24:30.699Z,20.00
2019-01-11T00:25:30.686Z,20.00
2019-01-11T00:26:30.724Z,20.00
2019-01-11T00:27:30.705Z,20.00
2019-01-11T00:28:30.647Z,20.00
2019-01-11T00:29:40.787Z,24.00
2019-01-11T00:30:30.626Z,20.00
2019-01-11T00:31:30.618Z,20.00
2019-01-11T00:32:30.611Z,24.00
2019-01-11T00:33:30.643Z,20.00
2019-01-11T00:34:30.586Z,24.00
2019-01-11T00:35:30.580Z,24.00
2019-01-11T00:36:30.569Z,24.00
2019-01-11T00:37:30.553Z,20.00
2019-01-11T00:38:30.547Z,28.00
2019-01-11T00:39:30.572Z,24.00
2019-01-11T00:40:30.521Z,40.00
2019-01-11T00:41:30.517Z,20.00
2019-01-11T00:42:30.504Z,20.00
2019-01-11T00:43:30.491Z,24.00
2019-01-11T00:44:30.482Z,20.00
2019-01-11T00:45:30.639Z,28.00
2019-01-11T00:46:30.458Z,20.00
2019-01-11T00:47:30.487Z,24.00
2019-01-11T00:48:30.456Z,24.00
2019-01-11T00:49:30.431Z,24.00
2019-01-11T00:50:30.411Z,24.00
2019-01-11T00:51:30.445Z,24.00
2019-01-11T00:52:30.391Z,24.00
2019-01-11T00:53:30.385Z,24.00
2019-01-11T00:54:30.375Z,24.00
2019-01-11T00:55:30.363Z,20.00
2019-01-11T00:56:30.350Z,24.00
2019-01-11T00:57:30.381Z,24.00
2019-01-11T00:58:30.326Z,24.00
2019-01-11T00:59:30.316Z,24.00
2019-01-11T01:00:40.585Z,24.00
2019-01-11T01:01:30.301Z,24.00
2019-01-11T01:02:30.289Z,24.00
2019-01-11T01:03:30.449Z,20.00
2019-01-11T01:04:30.271Z,24.00
2019-01-11T01:05:30.255Z,20.00
2019-01-11T01:06:30.252Z,20.00
2019-01-11T01:07:30.740Z,20.00
2019-01-11T01:08:30.610Z,20.00
2019-01-11T01:09:30.254Z,20.00
2019-01-11T01:10:30.204Z,20.00
2019-01-11T01:11:30.187Z,20.00
2019-01-11T01:12:30.184Z,20.00
2019-01-11T01:13:30.173Z,20.00
2019-01-11T01:14:30.157Z,20.00
2019-01-11T01:15:30.199Z,20.00
2019-01-11T01:16:30.140Z,20.00
2019-01-11T01:17:30.124Z,20.00
2019-01-11T01:18:30.111Z,20.00
2019-01-11T01:19:30.101Z,20.00
2019-01-11T01:20:30.095Z,20.00
2019-01-11T01:21:30.119Z,20.00
2019-01-11T01:22:30.069Z,20.00
2019-01-11T01:23:30.068Z,20.00
2019-01-11T01:24:30.053Z,20.00
2019-01-11T01:25:30.039Z,20.00
2019-01-11T01:26:30.029Z,20.00
2019-01-11T01:27:30.190Z,20.00
2019-01-11T01:28:30.010Z,20.00
2019-01-11T01:29:30.003Z,20.00
2019-01-11T01:30:29.993Z,20.00
2019-01-11T01:31:40.996Z,20.00
2019-01-11T01:32:30.007Z,20.00
2019-01-11T01:33:29.992Z,20.00
2019-01-11T01:34:29.947Z,20.00
2019-01-11T01:35:29.930Z,20.00
2019-01-11T01:36:29.925Z,20.00
2019-01-11T01:37:29.915Z,20.00
2019-01-11T01:38:29.899Z,20.00
2019-01-11T01:39:29.933Z,20.00
2019-01-11T01:40:29.877Z,20.00
2019-01-11T01:41:29.871Z,20.00
2019-01-11T01:42:29.864Z,20.00
2019-01-11T01:43:29.851Z,20.00
2019-01-11T01:44:29.837Z,20.00
2019-01-11T01:45:29.920Z,20.00
2019-01-11T01:46:29.819Z,20.00
2019-01-11T01:47:29.804Z,20.00
2019-01-11T01:48:29.796Z,20.00
2019-01-11T01:49:29.784Z,20.00
2019-01-11T01:50:29.780Z,20.00
2019-01-11T01:51:29.801Z,20.00
2019-01-11T01:52:29.751Z,20.00
2019-01-11T01:53:29.739Z,20.00
2019-01-11T01:54:29.728Z,20.00
2019-01-11T01:55:29.725Z,20.00
2019-01-11T01:56:29.712Z,20.00
2019-01-11T01:57:29.771Z,20.00
2019-01-11T01:58:29.685Z,20.00
2019-01-11T01:59:29.680Z,20.00
2019-01-11T02:00:29.663Z,20.00
2019-01-11T02:01:29.653Z,20.00
2019-01-11T02:02:40.313Z,20.00
2019-01-11T02:03:29.631Z,20.00
2019-01-11T02:04:29.622Z,20.00
2019-01-11T02:05:29.612Z,20.00
2019-01-11T02:06:29.605Z,20.00
2019-01-11T02:07:29.599Z,20.00
2019-01-11T02:08:29.603Z,20.00
2019-01-11T02:09:29.570Z,20.00
2019-01-11T02:10:29.560Z,20.00
2019-01-11T02:11:29.555Z,20.00
2019-01-11T02:12:29.542Z,20.00
2019-01-11T02:13:29.539Z,20.00
2019-01-11T02:14:29.555Z,20.00
2019-01-11T02:15:29.506Z,20.00
2019-01-11T02:16:29.496Z,20.00
2019-01-11T02:17:29.483Z,20.00
2019-01-11T02:18:29.478Z,20.00
2019-01-11T02:19:32.947Z,20.00
2019-01-11T02:20:29.497Z,20.00
2019-01-11T02:21:29.442Z,20.00
2019-01-11T02:22:29.432Z,20.00
2019-01-11T02:23:29.418Z,20.00
2019-01-11T02:24:29.406Z,20.00
2019-01-11T02:25:29.402Z,20.00
2019-01-11T02:26:29.428Z,20.00
2019-01-11T02:27:29.380Z,20.00
2019-01-11T02:28:29.370Z,20.00
2019-01-11T02:29:29.359Z,20.00
2019-01-11T02:30:29.347Z,20.00
2019-01-11T02:31:29.340Z,20.00
2019-01-11T02:32:29.362Z,20.00
2019-01-11T02:33:39.478Z,20.00
2019-01-11T02:34:29.303Z,20.00
2019-01-11T02:35:29.293Z,20.00
2019-01-11T02:36:29.285Z,20.00
2019-01-11T02:37:29.269Z,20.00
2019-01-11T02:38:29.344Z,20.00
2019-01-11T02:39:29.253Z,20.00
2019-01-11T02:40:29.236Z,20.00
2019-01-11T02:41:29.228Z,20.00
2019-01-11T02:42:29.223Z,20.00
2019-01-11T02:43:29.213Z,20.00
2019-01-11T02:44:29.233Z,20.00
2019-01-11T02:45:29.198Z,20.00
2019-01-11T02:46:29.173Z,20.00
2019-01-11T02:47:29.177Z,20.00
2019-01-11T02:48:29.159Z,20.00
2019-01-11T02:49:29.142Z,20.00
2019-01-11T02:50:29.170Z,20.00
2019-01-11T02:51:29.120Z,20.00
2019-01-11T02:52:29.116Z,20.00
2019-01-11T02:53:29.104Z,20.00
2019-01-11T02:54:29.088Z,20.00
2019-01-11T02:55:29.083Z,20.00
2019-01-11T02:56:29.112Z,20.00
2019-01-11T02:57:29.062Z,20.00
2019-01-11T02:58:29.047Z,20.00
2019-01-11T02:59:29.038Z,20.00
2019-01-11T03:00:29.026Z,20.00
2019-01-11T03:01:29.019Z,20.00
2019-01-11T03:02:29.057Z,20.00
2019-01-11T03:03:28.997Z,20.00
2019-01-11T03:04:39.354Z,20.00
2019-01-11T03:05:28.993Z,20.00
2019-01-11T03:06:28.964Z,20.00
2019-01-11T03:07:28.962Z,20.00
2019-01-11T03:08:28.978Z,20.00
2019-01-11T03:09:28.940Z,20.00
2019-01-11T03:10:28.929Z,20.00
2019-01-11T03:11:28.908Z,20.00
2019-01-11T03:12:28.898Z,20.00
2019-01-11T03:13:28.891Z,20.00
2019-01-11T03:14:28.926Z,20.00
2019-01-11T03:15:28.874Z,20.00
2019-01-11T03:16:28.857Z,20.00
2019-01-11T03:17:28.854Z,20.00
2019-01-11T03:18:28.839Z,20.00
2019-01-11T03:19:28.828Z,20.00
2019-01-11T03:20:28.987Z,20.00
2019-01-11T03:21:28.806Z,20.00
2019-01-11T03:22:28.791Z,20.00
2019-01-11T03:23:28.788Z,20.00
2019-01-11T03:24:28.769Z,20.00
2019-01-11T03:25:28.764Z,20.00
2019-01-11T03:26:28.782Z,20.00
2019-01-11T03:27:28.742Z,20.00
2019-01-11T03:28:28.732Z,20.00
2019-01-11T03:29:28.716Z,20.00
2019-01-11T03:30:28.713Z,20.00
2019-01-11T03:31:28.705Z,20.00
2019-01-11T03:32:28.733Z,20.00
2019-01-11T03:33:28.675Z,20.00
2019-01-11T03:34:28.663Z,20.00
2019-01-11T03:35:38.870Z,20.00
2019-01-11T03:36:28.644Z,20.00
2019-01-11T03:37:28.636Z,20.00
2019-01-11T03:38:28.665Z,20.00
2019-01-11T03:39:28.615Z,20.00
2019-01-11T03:40:28.608Z,20.00
2019-01-11T03:41:28.604Z,20.00
2019-01-11T03:42:28.580Z,20.00
2019-01-11T03:43:28.569Z,20.00
2019-01-11T03:44:28.657Z,20.00
2019-01-11T03:45:30.053Z,20.00
2019-01-11T03:46:28.542Z,20.00
2019-01-11T03:47:28.531Z,20.00
2019-01-11T03:48:28.516Z,20.00
2019-01-11T03:49:28.512Z,20.00
2019-01-11T03:50:28.540Z,20.00
2019-01-11T03:51:28.488Z,20.00
2019-01-11T03:52:28.478Z,20.00
2019-01-11T03:53:28.461Z,20.00
2019-01-11T03:54:28.454Z,20.00
2019-01-11T03:55:28.439Z,20.00
2019-01-11T03:56:28.470Z,20.00
2019-01-11T03:57:28.424Z,20.00
2019-01-11T03:58:28.410Z,20.00
2019-01-11T03:59:28.402Z,20.00
2019-01-11T04:00:28.390Z,20.00
2019-01-11T04:01:28.381Z,20.00
2019-01-11T04:02:28.408Z,20.00
2019-01-11T04:03:28.362Z,20.00
2019-01-11T04:04:28.357Z,20.00
2019-01-11T04:05:28.339Z,20.00
2019-01-11T04:06:38.533Z,20.00
2019-01-11T04:07:28.317Z,20.00
2019-01-11T04:08:28.340Z,20.00
2019-01-11T04:09:28.295Z,20.00
2019-01-11T04:10:28.288Z,20.00
2019-01-11T04:11:28.268Z,20.00
2019-01-11T04:12:28.261Z,20.00
2019-01-11T04:13:30.623Z,20.00
2019-01-11T04:14:28.276Z,20.00
2019-01-11T04:15:28.232Z,20.00
2019-01-11T04:16:28.217Z,20.00
2019-01-11T04:17:28.210Z,20.00
2019-01-11T04:18:28.204Z,20.00
2019-01-11T04:19:28.186Z,20.00
2019-01-11T04:20:28.213Z,20.00
2019-01-11T04:21:28.166Z,20.00
2019-01-11T04:22:29.601Z,20.00
2019-01-11T04:23:28.150Z,20.00
2019-01-11T04:24:28.141Z,20.00
2019-01-11T04:25:28.118Z,20.00
2019-01-11T04:26:28.151Z,20.00
2019-01-11T04:27:28.098Z,20.00
2019-01-11T04:28:28.089Z,20.00
2019-01-11T04:29:28.077Z,20.00
2019-01-11T04:30:28.069Z,20.00
2019-01-11T04:31:28.060Z,16.00
2019-01-11T04:32:28.222Z,20.00
2019-01-11T04:33:28.041Z,16.00
2019-01-11T04:34:28.031Z,16.00
2019-01-11T04:35:28.017Z,20.00
2019-01-11T04:36:28.016Z,16.00
2019-01-11T04:37:40.428Z,20.00
2019-01-11T04:38:27.985Z,16.00
2019-01-11T04:39:27.972Z,16.00
2019-01-11T04:40:34.143Z,16.00
2019-01-11T04:41:28.953Z,16.00
2019-01-11T04:42:27.944Z,20.00
2019-01-11T04:43:27.969Z,20.00
2019-01-11T04:44:27.918Z,20.00
2019-01-11T04:45:27.918Z,20.00
2019-01-11T04:46:27.898Z,20.00
2019-01-11T04:47:27.895Z,20.00
2019-01-11T04:48:27.879Z,20.00
2019-01-11T04:49:27.915Z,20.00
2019-01-11T04:50:27.940Z,20.00
2019-01-11T04:51:27.842Z,20.00
2019-01-11T04:52:27.836Z,20.00
2019-01-11T04:53:27.824Z,20.00
2019-01-11T04:54:27.827Z,20.00
2019-01-11T04:55:27.846Z,16.00
2019-01-11T04:56:27.794Z,16.00
2019-01-11T04:57:27.787Z,16.00
2019-01-11T04:58:27.779Z,20.00
2019-01-11T04:59:27.760Z,20.00
2019-01-11T05:00:27.751Z,20.00
2019-01-11T05:01:27.893Z,20.00
2019-01-11T05:02:27.745Z,20.00
2019-01-11T05:03:27.728Z,16.00
2019-01-11T05:04:27.709Z,16.00
2019-01-11T05:05:27.697Z,16.00
2019-01-11T05:06:27.696Z,16.00
2019-01-11T05:07:27.722Z,20.00
2019-01-11T05:08:38.417Z,20.00
2019-01-11T05:09:27.655Z,20.00
2019-01-11T05:10:27.648Z,20.00
2019-01-11T05:11:27.635Z,16.00
2019-01-11T05:12:27.627Z,20.00
2019-01-11T05:13:27.663Z,20.00
2019-01-11T05:14:27.617Z,20.00
2019-01-11T05:15:27.590Z,20.00
2019-01-11T05:16:27.586Z,20.00
2019-01-11T05:17:27.573Z,20.00
2019-01-11T05:18:27.560Z,20.00
2019-01-11T05:19:27.592Z,16.00
2019-01-11T05:20:27.538Z,20.00
2019-01-11T05:21:27.528Z,20.00
2019-01-11T05:22:27.516Z,20.00
2019-01-11T05:23:27.523Z,16.00
2019-01-11T05:24:27.499Z,16.00
2019-01-11T05:25:27.759Z,16.00
2019-01-11T05:26:27.481Z,16.00
2019-01-11T05:27:27.467Z,20.00
2019-01-11T05:28:27.458Z,20.00
2019-01-11T05:29:27.697Z,16.00
2019-01-11T05:30:27.431Z,20.00
2019-01-11T05:31:27.461Z,20.00
2019-01-11T05:32:27.410Z,20.00
2019-01-11T05:33:27.399Z,16.00
2019-01-11T05:34:27.404Z,20.00
2019-01-11T05:35:27.388Z,20.00
2019-01-11T05:36:27.372Z,16.00
2019-01-11T05:37:27.397Z,20.00
2019-01-11T05:38:27.344Z,16.00
2019-01-11T05:39:37.564Z,20.00
2019-01-11T05:40:27.324Z,20.00
2019-01-11T05:41:27.320Z,20.00
2019-01-11T05:42:34.594Z,20.00
2019-01-11T05:43:27.295Z,20.00
2019-01-11T05:44:27.290Z,20.00
2019-01-11T05:45:27.274Z,20.00
2019-01-11T05:46:27.269Z,20.00
2019-01-11T05:47:27.263Z,20.00
2019-01-11T05:48:27.275Z,20.00
2019-01-11T05:49:27.235Z,20.00
2019-01-11T05:50:27.225Z,20.00
2019-01-11T05:51:27.212Z,20.00
2019-01-11T05:52:27.197Z,20.00
2019-01-11T05:53:27.198Z,20.00
2019-01-11T05:54:27.227Z,20.00
2019-01-11T05:55:27.169Z,20.00
2019-01-11T05:56:27.191Z,20.00
2019-01-11T05:57:27.151Z,16.00
2019-01-11T05:58:27.141Z,20.00
2019-01-11T05:59:27.132Z,20.00
2019-01-11T06:00:27.144Z,20.00
2019-01-11T06:01:27.108Z,20.00
2019-01-11T06:02:27.098Z,20.00
2019-01-11T06:03:27.087Z,20.00
2019-01-11T06:04:27.072Z,20.00
2019-01-11T06:05:27.068Z,20.00
2019-01-11T06:06:27.096Z,20.00
2019-01-11T06:07:27.214Z,20.00
2019-01-11T06:08:27.037Z,20.00
2019-01-11T06:09:27.017Z,20.00
2019-01-11T06:10:27.008Z,20.00
2019-01-11T06:11:27.026Z,20.00
2019-01-11T06:12:27.186Z,20.00
2019-01-11T06:13:37.540Z,20.00
2019-01-11T06:14:26.969Z,24.00
2019-01-11T06:15:26.992Z,24.00
2019-01-11T06:16:26.959Z,24.00
2019-01-11T06:17:26.933Z,24.00
2019-01-11T06:18:26.962Z,24.00
2019-01-11T06:19:26.928Z,24.00
2019-01-11T06:20:30.461Z,24.00
2019-01-11T06:21:26.927Z,24.00
2019-01-11T06:22:26.882Z,24.00
2019-01-11T06:23:26.872Z,20.00
2019-01-11T06:24:26.899Z,20.00
2019-01-11T06:25:26.860Z,24.00
2019-01-11T06:26:26.871Z,20.00
2019-01-11T06:27:26.830Z,20.00
2019-01-11T06:28:26.820Z,24.00
2019-01-11T06:29:26.925Z,24.00
2019-01-11T06:30:26.946Z,24.00
2019-01-11T06:31:26.788Z,28.00
2019-01-11T06:32:26.780Z,24.00
2019-01-11T06:33:26.774Z,24.00
2019-01-11T06:34:26.760Z,28.00
2019-01-11T06:35:26.747Z,28.00
2019-01-11T06:36:26.905Z,24.00
2019-01-11T06:37:26.748Z,28.00
2019-01-11T06:38:26.720Z,28.00
2019-01-11T06:39:26.700Z,32.00
2019-01-11T06:40:26.690Z,32.00
2019-01-11T06:41:26.695Z,32.00
2019-01-11T06:42:26.686Z,36.00
2019-01-11T06:43:26.707Z,36.00
2019-01-11T06:44:39.119Z,40.00
2019-01-11T06:45:26.675Z,44.00
2019-01-11T06:46:26.625Z,44.00
2019-01-11T06:47:26.618Z,48.00
2019-01-11T06:48:26.625Z,48.00
2019-01-11T06:49:26.595Z,52.00
2019-01-11T06:50:26.590Z,60.00
2019-01-11T06:51:26.590Z,60.00
2019-01-11T06:52:26.576Z,60.00
2019-01-11T06:53:26.552Z,64.00
2019-01-11T06:54:26.591Z,64.00
2019-01-11T06:55:26.533Z,68.00
2019-01-11T06:56:26.525Z,72.00
2019-01-11T06:57:26.505Z,80.00
2019-01-11T06:58:26.495Z,88.00
2019-01-11T06:59:26.485Z,96.00
2019-01-11T07:00:26.532Z,100.00
2019-01-11T07:01:26.472Z,104.00
2019-01-11T07:02:26.463Z,108.00
2019-01-11T07:03:26.448Z,116.00
2019-01-11T07:04:26.441Z,128.00
2019-01-11T07:05:26.431Z,140.00
2019-01-11T07:06:26.516Z,148.00
2019-01-11T07:07:26.438Z,144.00
2019-01-11T07:08:26.462Z,152.00
2019-01-11T07:09:26.388Z,156.00
2019-01-11T07:10:26.369Z,160.00
2019-01-11T07:11:26.363Z,156.00
2019-01-11T07:12:26.396Z,164.00
2019-01-11T07:13:26.355Z,176.00
2019-01-11T07:14:26.323Z,200.00
2019-01-11T07:15:36.860Z,212.00
2019-01-11T07:16:26.310Z,212.00
2019-01-11T07:17:26.316Z,208.00
2019-01-11T07:18:26.330Z,216.00
2019-01-11T07:19:26.271Z,220.00
2019-01-11T07:20:26.327Z,212.00
2019-01-11T07:21:26.265Z,220.00
2019-01-11T07:22:26.240Z,228.00
2019-01-11T07:23:26.378Z,220.00
2019-01-11T07:24:26.315Z,232.00
2019-01-11T07:25:26.215Z,252.00
2019-01-11T07:26:26.222Z,288.00
2019-01-11T07:27:26.212Z,312.00
2019-01-11T07:28:26.184Z,324.00
2019-01-11T07:29:26.165Z,340.00
2019-01-11T07:30:26.185Z,348.00
2019-01-11T07:31:26.160Z,356.00
2019-01-11T07:32:26.346Z,360.00
2019-01-11T07:33:26.143Z,400.00
2019-01-11T07:34:26.114Z,448.00
2019-01-11T07:35:26.107Z,460.00
2019-01-11T07:36:26.132Z,420.00
2019-01-11T07:37:26.092Z,380.00
2019-01-11T07:38:26.067Z,360.00
2019-01-11T07:39:26.056Z,344.00
2019-01-11T07:40:26.053Z,404.00
2019-01-11T07:41:26.039Z,456.00
2019-01-11T07:42:26.067Z,524.00
2019-01-11T07:43:26.018Z,536.00
2019-01-11T07:44:26.020Z,576.00
2019-01-11T07:45:26.000Z,604.00
2019-01-11T07:46:38.115Z,616.00
2019-01-11T07:47:25.980Z,600.00
2019-01-11T07:48:26.019Z,592.00
2019-01-11T07:49:25.954Z,580.00
2019-01-11T07:50:25.965Z,596.00
2019-01-11T07:51:25.938Z,604.00
2019-01-11T07:52:25.925Z,628.00
2019-01-11T07:53:25.914Z,676.00
2019-01-11T07:54:25.942Z,716.00
2019-01-11T07:59:33.539Z,968.00
2019-01-11T08:00:33.466Z,932.00
2019-01-11T08:01:33.636Z,968.00
2019-01-11T08:02:33.478Z,956.00
2019-01-11T08:03:33.435Z,1040.00
2019-01-11T08:04:33.432Z,1136.00
2019-01-11T08:05:33.459Z,1192.00
2019-01-11T08:06:33.396Z,1216.00
2019-01-11T08:07:33.399Z,1196.00
2019-01-11T08:08:33.393Z,1240.00
2019-01-11T08:09:33.378Z,1248.00
2019-01-11T08:10:33.357Z,1328.00
2019-01-11T08:11:33.401Z,1380.00
2019-01-11T08:12:33.339Z,1440.00
2019-01-11T08:13:33.334Z,1444.00
2019-01-11T08:14:33.314Z,1508.00
2019-01-11T08:15:33.336Z,1452.00
2019-01-11T08:16:33.294Z,1548.00
2019-01-11T08:17:33.323Z,1592.00
2019-01-11T08:18:33.273Z,1504.00
2019-01-11T08:19:33.277Z,1528.00
2019-01-11T08:20:33.261Z,1708.00
2019-01-11T08:21:33.232Z,1636.00
2019-01-11T08:22:33.229Z,1844.00
2019-01-11T08:23:33.267Z,1948.00
2019-01-11T08:24:33.246Z,2164.00
2019-01-11T08:25:33.195Z,2268.00
2019-01-11T08:26:33.201Z,2552.00
2019-01-11T08:27:33.178Z,2756.00
2019-01-11T08:28:33.177Z,2300.00
2019-01-11T08:29:40.578Z,2204.00
2019-01-11T08:30:33.131Z,2396.00
2019-01-11T08:31:34.866Z,2604.00
2019-01-11T08:32:33.143Z,2916.00
2019-01-11T08:33:33.104Z,2708.00
2019-01-11T08:34:33.112Z,2580.00
2019-01-11T08:35:33.126Z,2616.00
2019-01-11T08:36:33.074Z,2564.00
2019-01-11T08:37:33.054Z,2464.00
2019-01-11T08:38:33.056Z,2408.00
2019-01-11T08:39:33.044Z,2112.00
2019-01-11T08:40:33.032Z,1984.00
2019-01-11T08:41:33.056Z,1976.00
2019-01-11T08:42:33.003Z,1964.00
2019-01-11T08:43:32.994Z,2128.00
2019-01-11T08:44:33.022Z,2160.00
2019-01-11T08:45:32.973Z,1952.00
2019-01-11T08:46:32.965Z,1908.00
2019-01-11T08:47:32.986Z,1944.00
2019-01-11T08:48:32.940Z,1876.00
2019-01-11T08:49:32.934Z,1840.00
2019-01-11T08:50:32.914Z,1932.00
2019-01-11T08:51:32.913Z,1968.00
2019-01-11T08:52:32.891Z,2312.00
2019-01-11T08:53:32.934Z,2140.00
2019-01-11T08:54:32.896Z,1908.00
2019-01-11T08:55:32.868Z,2152.00
2019-01-11T08:56:32.851Z,2268.00
2019-01-11T08:57:32.855Z,2536.00
2019-01-11T08:58:32.832Z,2100.00
2019-01-11T08:59:32.860Z,2328.00
2019-01-11T09:00:42.923Z,2452.00
2019-01-11T09:01:32.822Z,2548.00
2019-01-11T09:02:32.788Z,2412.00
2019-01-11T09:03:32.779Z,2476.00
2019-01-11T09:04:32.768Z,2180.00
2019-01-11T09:05:32.791Z,1888.00
2019-01-11T09:06:32.744Z,1648.00
2019-01-11T09:07:32.732Z,1608.00
2019-01-11T09:08:32.739Z,1612.00
2019-01-11T09:09:32.707Z,1736.00
2019-01-11T09:10:32.700Z,1840.00
2019-01-11T09:11:32.727Z,1876.00
2019-01-11T09:12:32.682Z,1940.00
2019-01-11T09:13:32.667Z,2048.00
2019-01-11T09:14:32.658Z,2472.00
2019-01-11T09:15:32.654Z,3000.00
2019-01-11T09:16:32.766Z,3540.00
2019-01-11T09:17:32.666Z,3816.00
2019-01-11T09:18:32.629Z,4292.00
2019-01-11T09:19:32.601Z,3796.00
2019-01-11T09:20:32.591Z,3668.00
2019-01-11T09:21:32.601Z,3636.00
2019-01-11T09:22:32.577Z,2964.00
2019-01-11T09:23:32.604Z,2780.00
2019-01-11T09:24:32.553Z,3004.00
2019-01-11T09:25:32.560Z,3196.00
2019-01-11T09:26:32.541Z,3192.00
2019-01-11T09:27:32.525Z,3312.00
2019-01-11T09:28:32.505Z,3520.00
2019-01-11T09:29:32.531Z,3736.00
2019-01-11T09:30:32.480Z,3876.00
2019-01-11T09:31:43.410Z,3996.00
2019-01-11T09:32:32.460Z,4016.00
2019-01-11T09:33:32.484Z,4000.00
2019-01-11T09:34:32.437Z,4012.00
2019-01-11T09:35:32.463Z,4004.00
2019-01-11T09:36:32.415Z,4024.00
2019-01-11T09:37:32.411Z,4024.00
2019-01-11T09:38:32.395Z,4040.00
2019-01-11T09:39:32.395Z,4056.00
2019-01-11T09:40:32.373Z,4080.00
2019-01-11T09:41:32.442Z,4088.00
2019-01-11T09:42:32.353Z,4108.00
2019-01-11T09:43:32.343Z,4156.00
2019-01-11T09:44:32.334Z,4164.00
2019-01-11T09:45:32.325Z,4212.00
2019-01-11T09:46:32.317Z,4224.00
2019-01-11T09:47:32.349Z,4248.00
2019-01-11T09:48:32.370Z,4360.00
2019-01-11T09:49:32.490Z,4400.00
2019-01-11T09:50:32.266Z,4448.00
2019-01-11T09:51:32.287Z,4380.00
2019-01-11T09:52:32.273Z,4352.00
2019-01-11T09:53:32.252Z,4204.00
2019-01-11T09:54:32.228Z,4256.00
2019-01-11T09:55:32.213Z,4292.00
2019-01-11T09:56:32.213Z,4292.00
2019-01-11T09:57:32.193Z,4368.00
2019-01-11T09:58:32.195Z,4748.00
2019-01-11T09:59:35.138Z,4908.00
2019-01-11T10:00:32.164Z,5524.00
2019-01-11T10:01:32.147Z,4988.00
2019-01-11T10:02:42.885Z,4616.00
2019-01-11T10:03:32.127Z,4604.00
2019-01-11T10:04:32.120Z,5868.00
2019-01-11T10:05:32.132Z,7344.00
2019-01-11T10:06:32.094Z,7672.00
2019-01-11T10:07:32.088Z,9988.00
2019-01-11T10:08:32.108Z,13480.00
2019-01-11T10:09:32.068Z,39104.00
2019-01-11T10:10:32.051Z,25376.00
2019-01-11T10:11:32.092Z,24672.00
2019-01-11T10:12:32.040Z,22848.00
2019-01-11T10:13:32.057Z,7476.00
2019-01-11T10:14:32.018Z,7624.00
2019-01-11T10:15:31.997Z,7528.00
2019-01-11T10:16:31.988Z,6364.00
2019-01-11T10:17:32.000Z,5956.00
2019-01-11T10:18:31.964Z,7776.00
2019-01-11T10:19:31.976Z,6716.00
2019-01-11T10:20:31.960Z,7040.00
2019-01-11T10:21:31.958Z,5684.00
2019-01-11T10:22:31.925Z,6376.00
2019-01-11T10:23:32.317Z,7392.00
2019-01-11T10:24:31.901Z,9240.00
2019-01-11T10:25:31.903Z,9412.00
2019-01-11T10:26:31.886Z,9032.00
2019-01-11T10:27:31.877Z,9388.00
2019-01-11T10:28:31.860Z,11212.00
2019-01-11T10:29:31.889Z,29696.00
2019-01-11T10:30:31.839Z,11328.00
2019-01-11T10:31:31.839Z,4936.00
2019-01-11T10:32:31.820Z,5252.00
2019-01-11T10:33:42.335Z,5232.00
2019-01-11T10:34:31.796Z,4252.00
2019-01-11T10:35:31.834Z,4804.00
2019-01-11T10:36:31.777Z,5348.00
2019-01-11T10:37:33.178Z,4296.00
2019-01-11T10:38:31.755Z,4200.00
2019-01-11T10:39:31.736Z,4820.00
2019-01-11T10:40:31.729Z,3704.00
2019-01-11T10:41:31.769Z,4132.00
2019-01-11T10:42:31.724Z,4304.00
2019-01-11T10:43:31.700Z,4104.00
2019-01-11T10:44:31.688Z,3700.00
2019-01-11T10:45:31.675Z,3864.00
2019-01-11T10:46:31.664Z,4060.00
2019-01-11T10:47:31.698Z,4540.00
2019-01-11T10:48:31.644Z,4328.00
2019-01-11T10:49:31.633Z,4676.00
2019-01-11T10:50:31.619Z,5756.00
2019-01-11T10:51:31.609Z,5392.00
2019-01-11T10:52:31.597Z,5360.00
2019-01-11T10:53:31.769Z,5540.00
2019-01-11T10:54:31.578Z,5176.00
2019-01-11T10:55:31.568Z,4584.00
2019-01-11T10:56:31.553Z,4932.00
2019-01-11T10:57:31.549Z,5664.00
2019-01-11T10:58:31.535Z,6668.00
2019-01-11T10:59:31.559Z,7620.00
2019-01-11T11:00:31.514Z,14528.00
2019-01-11T11:01:31.505Z,8524.00
2019-01-11T11:02:31.491Z,8832.00
2019-01-11T11:03:31.537Z,6872.00
2019-01-11T11:04:41.686Z,8004.00
2019-01-11T11:05:31.459Z,5832.00
2019-01-11T11:06:31.449Z,5040.00
2019-01-11T11:07:31.441Z,4600.00
2019-01-11T11:08:31.451Z,5872.00
2019-01-11T11:09:31.415Z,6692.00
2019-01-11T11:10:31.430Z,6512.00
2019-01-11T11:11:31.395Z,6628.00
2019-01-11T11:12:31.380Z,5788.00
2019-01-11T11:13:31.382Z,13024.00
2019-01-11T11:14:31.364Z,7364.00
2019-01-11T11:15:31.349Z,6368.00
2019-01-11T11:16:32.954Z,6488.00
2019-01-11T11:17:31.333Z,6680.00
2019-01-11T11:18:31.315Z,6364.00
2019-01-11T11:19:31.305Z,5996.00
2019-01-11T11:20:31.295Z,6260.00
2019-01-11T11:21:34.691Z,4420.00
2019-01-11T11:22:31.319Z,4484.00
2019-01-11T11:23:31.264Z,5192.00
2019-01-11T11:24:31.256Z,6708.00
2019-01-11T11:25:31.243Z,6148.00
2019-01-11T11:26:31.232Z,12896.00
2019-01-11T11:27:31.221Z,6884.00
2019-01-11T11:28:31.315Z,7472.00
2019-01-11T11:29:31.199Z,8396.00
2019-01-11T11:30:31.192Z,10224.00
2019-01-11T11:31:31.190Z,9604.00
2019-01-11T11:32:31.172Z,7856.00
2019-01-11T11:33:31.155Z,7308.00
2019-01-11T11:34:31.315Z,13376.00
2019-01-11T11:35:43.107Z,7880.00
2019-01-11T11:36:31.118Z,8308.00
2019-01-11T11:37:31.107Z,16768.00
2019-01-11T11:38:31.104Z,16928.00
2019-01-11T11:39:31.095Z,13760.00
2019-01-11T11:40:31.150Z,7184.00
2019-01-11T11:41:31.068Z,7680.00
2019-01-11T11:42:31.054Z,30400.00
2019-01-11T11:43:31.044Z,27040.00
2019-01-11T11:44:31.046Z,6380.00
2019-01-11T11:45:31.039Z,7828.00
2019-01-11T11:46:31.124Z,20000.00
2019-01-11T11:47:31.002Z,20256.00
2019-01-11T11:48:30.989Z,7192.00
2019-01-11T11:49:30.980Z,8024.00
2019-01-11T11:50:30.980Z,10052.00
2019-01-11T11:51:30.960Z,21728.00
2019-01-11T11:52:31.159Z,14400.00
2019-01-11T11:53:30.936Z,7492.00
2019-01-11T11:54:30.926Z,11372.00
2019-01-11T11:55:30.920Z,19520.00
2019-01-11T11:56:30.902Z,20288.00
2019-01-11T11:57:30.892Z,17984.00
2019-01-11T11:58:30.925Z,11616.00
2019-01-11T11:59:30.878Z,5712.00
2019-01-11T12:00:30.869Z,6272.00
2019-01-11T12:01:30.853Z,8472.00
2019-01-11T12:02:30.840Z,20288.00
2019-01-11T12:03:30.825Z,14656.00
2019-01-11T12:04:31.086Z,14080.00
2019-01-11T12:05:30.807Z,14144.00
2019-01-11T12:06:40.812Z,11744.00
2019-01-11T12:07:30.781Z,17920.00
2019-01-11T12:08:30.771Z,6072.00
2019-01-11T12:09:30.761Z,9728.00
2019-01-11T12:10:30.790Z,12416.00
2019-01-11T12:11:30.737Z,12256.00
2019-01-11T12:12:31.485Z,11264.00
2019-01-11T12:13:34.441Z,12096.00
2019-01-11T12:14:30.721Z,7952.00
2019-01-11T12:15:30.695Z,8092.00
2019-01-11T12:16:30.730Z,5288.00
2019-01-11T12:17:30.672Z,6396.00
2019-01-11T12:18:30.667Z,4272.00
2019-01-11T12:19:30.659Z,4536.00
2019-01-11T12:20:30.644Z,5844.00
2019-01-11T12:21:30.641Z,11616.00
2019-01-11T12:22:30.634Z,10496.00
2019-01-11T12:23:30.616Z,9588.00
2019-01-11T12:24:30.600Z,10432.00
2019-01-11T12:25:30.591Z,11424.00
2019-01-11T12:26:30.579Z,12288.00
2019-01-11T12:27:30.573Z,13024.00
2019-01-11T12:28:30.598Z,11200.00
2019-01-11T12:29:30.547Z,7692.00
2019-01-11T12:30:30.547Z,6836.00
2019-01-11T12:31:30.523Z,6700.00
2019-01-11T12:32:30.512Z,5068.00
2019-01-11T12:33:30.504Z,3636.00
2019-01-11T12:34:30.539Z,3276.00
2019-01-11T12:35:30.478Z,3180.00